Time;durP1;ratioP1;P1;durP2;ratioP2;P2;SDS_P1;SDS_P2;PMS_P1;PMS_P2;Temp;Humidity;BMP_temperature;BMP_pressure;BME280_temperature;BME280_humidity;BME280_pressure;Samples;Min_cycle;Max_cycle;Signal;HPM_P1;HPM_P2
2022/03/06 00:02:05;;;;;;;210.00;165.48;;;;;;;14.07;24.85;93602.69;5099235;27;20048;-62
2022/03/06 00:04:31;;;;;;;205.57;160.93;;;;;;;14.04;24.93;93608.19;5106554;27;20042;-63
2022/03/06 00:06:57;;;;;;;198.25;157.35;;;;;;;14.06;24.81;93603.13;5112387;27;20039;-62
2022/03/06 00:09:23;;;;;;;212.43;168.93;;;;;;;14.07;24.74;93607.31;5110105;27;20054;-63
2022/03/06 00:11:49;;;;;;;196.43;157.27;;;;;;;14.07;24.62;93600.00;5089258;27;20027;-64
2022/03/06 00:14:15;;;;;;;200.77;160.05;;;;;;;14.06;24.98;93598.50;5108567;27;20474;-63
2022/03/06 00:16:41;;;;;;;200.93;159.02;;;;;;;14.05;24.74;93601.63;5100511;27;20057;-63
2022/03/06 00:19:07;;;;;;;196.48;155.68;;;;;;;14.04;24.88;93598.19;5111682;27;20036;-63
2022/03/06 00:21:34;;;;;;;193.60;152.88;;;;;;;14.04;24.68;93603.56;5109617;27;20057;-64
2022/03/06 00:24:00;;;;;;;205.50;162.23;;;;;;;14.03;24.81;93601.31;5112725;27;20051;-63
2022/03/06 00:26:25;;;;;;;202.43;160.90;;;;;;;14.02;25.02;93597.88;5094662;27;20058;-63
2022/03/06 00:28:51;;;;;;;199.25;156.35;;;;;;;14.02;24.66;93597.13;5113847;27;20115;-63
2022/03/06 00:31:17;;;;;;;199.32;157.57;;;;;;;14.02;24.84;93602.50;5091764;27;20043;-63
2022/03/06 00:33:43;;;;;;;201.15;159.98;;;;;;;14.03;24.76;93595.94;5088052;28;20077;-63
2022/03/06 00:36:08;;;;;;;197.85;155.85;;;;;;;14.03;24.81;93599.38;5113568;27;20143;-63
2022/03/06 00:38:34;;;;;;;208.00;164.13;;;;;;;14.04;24.79;93595.50;5116499;27;20180;-63
2022/03/06 00:41:00;;;;;;;196.98;155.23;;;;;;;14.04;24.92;93597.44;5114388;27;20034;-62
2022/03/06 00:43:25;;;;;;;197.93;155.57;;;;;;;14.04;24.80;93597.44;5102887;27;20129;-63
2022/03/06 00:45:51;;;;;;;201.95;160.57;;;;;;;14.05;24.76;93604.31;5111595;27;20722;-63
2022/03/06 00:48:17;;;;;;;198.23;156.80;;;;;;;14.04;24.90;93600.88;5109579;27;20143;-63
2022/03/06 00:50:42;;;;;;;195.95;155.77;;;;;;;14.03;24.89;93602.06;5089284;27;20036;-63
2022/03/06 00:53:08;;;;;;;198.10;153.82;;;;;;;14.05;24.99;93598.94;5114302;27;20488;-63
2022/03/06 00:55:34;;;;;;;197.57;157.60;;;;;;;14.03;24.70;93607.44;5110329;27;20411;-64
2022/03/06 00:58:05;;;;;;;198.63;158.10;;;;;;;14.04;24.80;93605.50;5107718;27;20462;-63
2022/03/06 01:00:39;;;;;;;210.02;166.95;;;;;;;14.04;24.83;93598.19;5094943;27;20039;-63
2022/03/06 01:03:10;;;;;;;198.40;156.50;;;;;;;14.04;24.94;93605.50;5114196;27;20051;-64
2022/03/06 01:05:36;;;;;;;197.43;154.23;;;;;;;13.99;24.61;93606.81;5110303;27;20091;-63
2022/03/06 01:08:03;;;;;;;193.35;151.75;;;;;;;14.00;24.87;93613.69;5115525;27;20053;-64
2022/03/06 01:10:29;;;;;;;210.10;165.23;;;;;;;14.00;24.71;93605.63;5113647;27;20035;-64
2022/03/06 01:12:55;;;;;;;199.52;158.02;;;;;;;14.01;24.90;93615.19;5109091;27;20035;-63
2022/03/06 01:15:22;;;;;;;206.95;159.82;;;;;;;14.02;24.84;93613.25;5108214;27;22221;-63
2022/03/06 01:17:47;;;;;;;199.45;158.18;;;;;;;14.02;24.91;93611.31;5099864;28;20039;-64
2022/03/06 01:20:13;;;;;;;201.15;158.23;;;;;;;14.03;24.95;93604.00;5111374;27;20058;-62
2022/03/06 01:22:39;;;;;;;196.80;157.88;;;;;;;14.01;24.74;93607.13;5106074;27;20451;-63
2022/03/06 01:25:05;;;;;;;198.45;156.23;;;;;;;14.01;24.89;93609.81;5111673;27;20043;-62
2022/03/06 01:27:32;;;;;;;198.38;158.38;;;;;;;14.01;24.95;93607.13;5107964;27;20031;-63
2022/03/06 01:29:57;;;;;;;202.55;160.40;;;;;;;14.00;25.08;93599.50;5116738;27;20041;-63
2022/03/06 01:32:23;;;;;;;197.60;155.43;;;;;;;14.00;24.98;93597.56;5111984;28;20427;-62
2022/03/06 01:34:49;;;;;;;204.65;162.60;;;;;;;14.02;24.73;93602.50;5112435;27;20035;-64
2022/03/06 01:37:15;;;;;;;203.00;160.30;;;;;;;14.00;24.94;93608.31;5091721;28;20122;-64
2022/03/06 01:39:40;;;;;;;199.63;157.65;;;;;;;13.99;25.03;93606.81;5111521;28;20249;-63
2022/03/06 01:42:09;;;;;;;194.10;152.65;;;;;;;13.99;24.68;93606.81;5112978;27;20517;-64
2022/03/06 01:44:35;;;;;;;211.23;165.98;;;;;;;14.00;24.74;93605.63;5113158;28;20098;-62
2022/03/06 01:47:00;;;;;;;194.05;153.45;;;;;;;13.99;24.95;93601.44;5107997;27;20142;-63
2022/03/06 01:49:26;;;;;;;198.77;158.52;;;;;;;13.98;24.96;93599.94;5112432;27;20039;-64
2022/03/06 01:51:51;;;;;;;193.45;153.35;;;;;;;14.00;24.90;93602.19;5108365;27;20189;-63
2022/03/06 01:54:17;;;;;;;204.98;160.93;;;;;;;13.99;24.97;93601.44;5104883;27;20050;-62
2022/03/06 01:56:43;;;;;;;196.57;154.43;;;;;;;13.98;25.02;93602.63;5111465;27;20122;-63
2022/03/06 01:59:09;;;;;;;208.88;164.27;;;;;;;13.98;24.69;93605.31;5114443;27;20047;-64
2022/03/06 02:01:35;;;;;;;207.27;165.13;;;;;;;13.97;24.90;93601.13;5109674;27;20118;-64
2022/03/06 02:04:01;;;;;;;202.75;161.90;;;;;;;13.99;24.69;93600.69;5110392;27;20599;-62
2022/03/06 02:06:27;;;;;;;213.93;169.07;;;;;;;13.96;24.83;93596.19;5110186;27;20046;-64
2022/03/06 02:08:54;;;;;;;209.73;162.30;;;;;;;13.98;24.74;93601.88;5113974;27;20053;-64
2022/03/06 02:11:22;;;;;;;199.23;158.80;;;;;;;13.96;25.12;93598.88;5097587;27;20039;-63
2022/03/06 02:13:48;;;;;;;194.75;153.15;;;;;;;13.94;24.99;93596.63;5111747;27;20102;-63
2022/03/06 02:16:14;;;;;;;199.88;158.18;;;;;;;13.94;25.00;93598.56;5117267;27;20048;-64
2022/03/06 02:18:39;;;;;;;205.55;162.13;;;;;;;13.96;24.72;93594.25;5110856;27;20445;-63
2022/03/06 02:21:07;;;;;;;192.15;152.60;;;;;;;13.96;24.80;93607.69;5115786;27;20742;-63
2022/03/06 02:23:33;;;;;;;199.27;158.35;;;;;;;13.95;24.73;93598.13;5116021;27;20111;-63
2022/03/06 02:25:59;;;;;;;198.00;154.55;;;;;;;13.97;24.88;93611.13;5112811;27;20464;-64
2022/03/06 02:28:24;;;;;;;200.32;159.38;;;;;;;13.92;24.86;93604.38;5112729;27;20081;-64
2022/03/06 02:30:50;;;;;;;206.50;163.38;;;;;;;13.94;24.96;93607.38;5091647;27;22100;-63
2022/03/06 02:33:15;;;;;;;203.90;161.70;;;;;;;13.94;24.50;93603.94;5112071;27;20122;-64
2022/03/06 02:35:41;;;;;;;204.82;160.80;;;;;;;13.93;24.78;93607.81;5114887;27;20513;-64
2022/03/06 02:38:08;;;;;;;198.60;156.98;;;;;;;13.94;24.98;93610.06;5111792;27;20066;-63
2022/03/06 02:40:37;;;;;;;207.82;164.02;;;;;;;13.95;24.84;93614.25;5109051;27;20445;-63
2022/03/06 02:43:05;;;;;;;208.05;163.55;;;;;;;13.94;25.05;93610.06;5113163;27;20111;-64
2022/03/06 02:45:31;;;;;;;202.15;160.55;;;;;;;13.92;24.85;93609.00;5097700;27;20050;-63
2022/03/06 02:47:57;;;;;;;203.43;159.40;;;;;;;13.90;24.53;93601.38;5114101;27;20713;-63
2022/03/06 02:50:26;;;;;;;209.95;162.80;;;;;;;13.91;25.00;93605.56;5115662;27;20043;-63
2022/03/06 02:52:53;;;;;;;196.02;154.63;;;;;;;13.91;25.00;93604.81;5109388;27;20111;-63
2022/03/06 02:55:19;;;;;;;196.60;153.60;;;;;;;13.91;24.98;93607.50;5117341;27;20039;-63
2022/03/06 02:57:46;;;;;;;200.68;156.75;;;;;;;13.91;24.87;93608.25;5115199;27;20041;-62
2022/03/06 03:00:14;;;;;;;202.55;158.88;;;;;;;13.91;24.68;93602.13;5114459;27;20055;-62
2022/03/06 03:02:44;;;;;;;199.13;156.93;;;;;;;13.90;24.71;93600.63;5110576;27;20043;-63
2022/03/06 03:05:11;;;;;;;202.52;158.95;;;;;;;13.91;24.81;93613.63;5110300;27;20051;-62
2022/03/06 03:07:38;;;;;;;198.82;155.40;;;;;;;13.89;25.08;93601.81;5095450;27;20038;-63
2022/03/06 03:10:04;;;;;;;201.20;158.02;;;;;;;13.89;24.98;93599.13;5112058;27;20499;-64
2022/03/06 03:12:30;;;;;;;200.02;158.43;;;;;;;13.90;24.79;93603.31;5114910;27;20036;-64
2022/03/06 03:14:56;;;;;;;200.25;158.05;;;;;;;13.88;25.00;93608.38;5113721;27;20041;-64
2022/03/06 03:17:21;;;;;;;196.25;155.75;;;;;;;13.87;24.81;93606.84;5114475;27;20460;-64
2022/03/06 03:19:47;;;;;;;208.27;165.40;;;;;;;13.87;24.86;93609.53;5110087;27;20413;-63
2022/03/06 03:22:13;;;;;;;205.98;162.00;;;;;;;13.87;24.98;93617.63;5098928;27;20055;-64
2022/03/06 03:24:38;;;;;;;197.77;152.77;;;;;;;13.87;24.80;93623.00;5095083;27;20878;-64
2022/03/06 03:27:04;;;;;;;204.05;161.65;;;;;;;13.83;24.77;93618.47;5089919;27;20119;-64
2022/03/06 03:29:30;;;;;;;192.18;152.40;;;;;;;13.87;24.96;93614.94;5108523;27;20408;-63
2022/03/06 03:31:55;;;;;;;198.07;155.32;;;;;;;13.86;24.66;93611.50;5117837;27;20054;-63
2022/03/06 03:34:21;;;;;;;198.30;157.32;;;;;;;13.87;24.92;93610.28;5112420;27;20511;-64
2022/03/06 03:36:46;;;;;;;202.13;158.77;;;;;;;13.87;24.95;93612.25;5108887;27;20582;-62
2022/03/06 03:39:12;;;;;;;206.13;162.98;;;;;;;13.85;25.12;93621.47;5114354;27;20531;-63
2022/03/06 03:41:38;;;;;;;197.63;155.73;;;;;;;13.87;24.85;93625.69;5111641;27;20055;-63
2022/03/06 03:44:04;;;;;;;197.07;153.48;;;;;;;13.84;24.94;93627.28;5088661;27;20039;-64
2022/03/06 03:46:29;;;;;;;202.15;157.20;;;;;;;13.87;24.82;93631.06;5114214;27;20894;-62
2022/03/06 03:48:55;;;;;;;198.95;156.13;;;;;;;13.87;24.83;93639.13;5093337;28;20060;-64
2022/03/06 03:51:21;;;;;;;196.60;154.00;;;;;;;13.85;24.99;93631.47;5110720;27;20044;-64
2022/03/06 03:53:47;;;;;;;194.57;153.60;;;;;;;13.84;24.83;93630.72;5107101;27;20081;-64
2022/03/06 03:56:13;;;;;;;205.20;160.13;;;;;;;13.84;24.75;93629.97;5114782;27;20044;-63
2022/03/06 03:58:38;;;;;;;206.18;162.90;;;;;;;13.83;24.76;93634.59;5114197;27;20046;-63
2022/03/06 04:01:04;;;;;;;198.73;157.30;;;;;;;13.82;25.00;93638.47;5109633;27;20047;-63
2022/03/06 04:03:30;;;;;;;197.68;155.20;;;;;;;13.83;24.86;93645.34;5109180;27;20042;-64
2022/03/06 04:05:56;;;;;;;194.95;154.85;;;;;;;13.83;24.77;93645.34;5110865;27;20047;-63
2022/03/06 04:08:21;;;;;;;198.40;155.25;;;;;;;13.84;24.92;93651.47;5114184;27;20045;-63
2022/03/06 04:10:47;;;;;;;200.07;156.75;;;;;;;13.82;25.03;93654.59;5090988;27;20444;-63
2022/03/06 04:13:12;;;;;;;194.65;152.02;;;;;;;13.84;24.70;93648.78;5112587;27;20122;-63
2022/03/06 04:15:38;;;;;;;194.38;150.60;;;;;;;13.83;25.00;93644.59;5116283;27;20039;-63
2022/03/06 04:18:04;;;;;;;204.68;158.25;;;;;;;13.83;24.90;93650.75;5091548;27;20111;-64
2022/03/06 04:20:30;;;;;;;211.52;164.63;;;;;;;13.83;24.94;93647.28;5109811;27;20043;-64
2022/03/06 04:22:56;;;;;;;199.85;156.93;;;;;;;13.82;24.89;93653.84;5110332;27;20125;-63
2022/03/06 04:25:22;;;;;;;194.80;153.95;;;;;;;13.81;25.01;93646.97;5097096;27;21031;-63
2022/03/06 04:27:48;;;;;;;196.40;154.18;;;;;;;13.81;24.90;93644.28;5112669;27;20073;-64
2022/03/06 04:30:14;;;;;;;205.55;160.48;;;;;;;13.82;25.00;93646.53;5106867;27;20040;-63
2022/03/06 04:32:39;;;;;;;198.75;156.95;;;;;;;13.81;24.84;93650.41;5115901;27;20041;-64
2022/03/06 04:35:06;;;;;;;200.57;158.07;;;;;;;13.80;25.10;93648.91;5107347;27;20230;-62
2022/03/06 04:37:32;;;;;;;200.23;156.65;;;;;;;13.79;24.96;93649.34;5113463;27;20035;-64
2022/03/06 04:39:57;;;;;;;196.18;155.60;;;;;;;13.80;24.77;93661.59;5111190;27;20104;-63
2022/03/06 04:42:23;;;;;;;197.40;154.30;;;;;;;13.80;24.74;93653.53;5109776;27;20043;-63
2022/03/06 04:44:49;;;;;;;194.60;154.05;;;;;;;13.79;24.56;93655.47;5110843;27;20044;-64
2022/03/06 04:47:14;;;;;;;212.70;166.75;;;;;;;13.78;24.96;93659.34;5101632;27;20043;-64
2022/03/06 04:49:40;;;;;;;195.90;155.02;;;;;;;13.79;24.92;93660.09;5100452;28;20380;-63
2022/03/06 04:52:06;;;;;;;197.23;155.05;;;;;;;13.76;24.96;93656.34;5116794;27;20146;-63
2022/03/06 04:54:31;;;;;;;192.40;150.98;;;;;;;13.76;24.86;93656.34;5109217;27;20399;-62
2022/03/06 04:56:57;;;;;;;198.80;154.57;;;;;;;13.78;24.82;93666.66;5094946;27;20047;-62
2022/03/06 04:59:23;;;;;;;200.07;157.40;;;;;;;13.77;24.88;93662.47;5115097;27;20112;-63
2022/03/06 05:01:48;;;;;;;200.02;156.68;;;;;;;13.77;25.28;93663.22;5113473;27;20815;-63
2022/03/06 05:04:14;;;;;;;199.82;156.63;;;;;;;13.77;24.96;93670.53;5108564;27;20039;-64
2022/03/06 05:06:40;;;;;;;201.65;158.35;;;;;;;13.81;24.74;93668.47;5114915;27;20039;-63
2022/03/06 05:09:06;;;;;;;198.95;155.07;;;;;;;13.80;24.98;93664.28;5113058;27;20046;-61
2022/03/06 05:11:33;;;;;;;204.32;159.32;;;;;;;13.80;24.62;93653.53;5112968;27;20032;-64
2022/03/06 05:13:58;;;;;;;207.55;161.77;;;;;;;13.79;24.76;93654.72;5113348;27;20040;-62
2022/03/06 05:16:24;;;;;;;195.88;152.48;;;;;;;13.81;24.69;93655.78;5113254;27;20046;-63
2022/03/06 05:18:50;;;;;;;195.05;153.88;;;;;;;13.84;24.86;93660.31;5099423;28;20032;-63
2022/03/06 05:21:15;;;;;;;209.57;164.07;;;;;;;13.83;24.84;93655.34;5090947;27;20490;-63
2022/03/06 05:23:41;;;;;;;204.68;161.38;;;;;;;13.88;24.72;93665.56;5110268;27;20066;-64
2022/03/06 05:26:07;;;;;;;203.25;158.50;;;;;;;13.89;24.84;93666.31;5109853;27;22154;-63
2022/03/06 05:28:33;;;;;;;194.15;153.15;;;;;;;13.88;24.66;93662.88;5114503;27;20169;-63
2022/03/06 05:30:59;;;;;;;203.27;161.13;;;;;;;13.90;24.53;93665.88;5117398;27;20043;-63
2022/03/06 05:33:24;;;;;;;195.45;155.10;;;;;;;13.91;24.55;93667.38;5106141;27;20135;-63
2022/03/06 05:35:50;;;;;;;197.25;156.23;;;;;;;13.93;24.49;93675.75;5087556;28;20061;-63
2022/03/06 05:38:16;;;;;;;201.77;158.95;;;;;;;13.93;24.52;93681.13;5095455;27;20635;-62
2022/03/06 05:40:42;;;;;;;208.95;162.35;;;;;;;13.93;24.47;93669.63;5109157;27;20044;-63
2022/03/06 05:43:08;;;;;;;193.40;153.00;;;;;;;13.94;24.73;93685.31;5108630;27;20084;-64
2022/03/06 05:45:33;;;;;;;198.85;157.73;;;;;;;13.95;24.57;93678.00;5107673;28;20042;-64
2022/03/06 05:47:59;;;;;;;196.75;154.90;;;;;;;13.96;24.39;93676.81;5112524;28;20159;-68
2022/03/06 05:50:25;;;;;;;214.13;167.10;;;;;;;13.97;24.57;93681.03;5088300;28;20056;-64
2022/03/06 05:52:51;;;;;;;199.30;157.82;;;;;;;13.97;24.41;93684.47;5109546;28;20273;-63
2022/03/06 05:55:17;;;;;;;202.15;161.18;;;;;;;13.99;24.56;93679.41;5096320;28;20044;-63
2022/03/06 05:57:49;;;;;;;200.60;159.45;;;;;;;13.99;24.42;93678.66;5106919;27;20091;-62
2022/03/06 06:00:17;;;;;;;202.77;161.35;;;;;;;14.00;24.33;93686.28;5119500;28;20123;-64
2022/03/06 06:02:44;;;;;;;194.65;152.95;;;;;;;14.03;24.33;93679.28;5112931;28;20059;-64
2022/03/06 06:05:10;;;;;;;203.15;160.00;;;;;;;14.01;24.47;93682.41;5115203;28;20055;-64
2022/03/06 06:07:36;;;;;;;196.40;156.32;;;;;;;14.03;24.24;93687.34;5113540;28;20551;-64
2022/03/06 06:10:04;;;;;;;196.55;155.85;;;;;;;14.04;24.28;93678.09;5111864;27;20035;-65
2022/03/06 06:12:30;;;;;;;196.40;157.75;;;;;;;14.03;24.35;93685.41;5118244;28;20047;-64
2022/03/06 06:14:55;;;;;;;195.85;155.52;;;;;;;14.04;24.44;93686.16;5109577;28;20418;-63
2022/03/06 06:17:22;;;;;;;197.50;156.20;;;;;;;14.06;24.50;93686.47;5089720;28;20047;-62
2022/03/06 06:19:47;;;;;;;212.20;166.55;;;;;;;14.06;24.33;93697.97;5114057;28;20067;-63
2022/03/06 06:22:13;;;;;;;198.57;157.63;;;;;;;14.05;24.41;93691.09;5111762;28;20058;-63
2022/03/06 06:24:38;;;;;;;196.10;155.73;;;;;;;14.07;24.43;93688.72;5113201;28;20059;-62
2022/03/06 06:27:04;;;;;;;198.20;157.55;;;;;;;14.06;24.55;93681.84;5107053;28;20043;-62
2022/03/06 06:29:30;;;;;;;197.50;158.75;;;;;;;14.09;24.47;93689.03;5095915;28;20055;-61
2022/03/06 06:31:56;;;;;;;195.98;155.30;;;;;;;14.08;24.25;93697.56;5110158;28;21319;-61
2022/03/06 06:34:21;;;;;;;197.13;158.43;;;;;;;14.08;24.47;93700.25;5094411;28;20031;-62
2022/03/06 06:36:47;;;;;;;196.60;157.18;;;;;;;14.08;24.29;93706.38;5117364;28;20043;-62
2022/03/06 06:39:13;;;;;;;197.98;156.77;;;;;;;14.07;24.40;93699.47;5117057;28;20154;-62
2022/03/06 06:41:40;;;;;;;196.05;156.07;;;;;;;14.08;24.13;93698.31;5114701;28;20088;-62
2022/03/06 06:44:18;;;;;;;200.18;157.45;;;;;;;14.06;24.20;93692.59;5116589;28;20046;-61
2022/03/06 06:46:44;;;;;;;194.88;154.80;;;;;;;14.08;24.55;93695.59;5103705;28;20046;-61
2022/03/06 06:49:10;;;;;;;197.27;156.85;;;;;;;14.06;24.11;93695.28;5116315;27;20051;-60
2022/03/06 06:51:38;;;;;;;196.63;157.48;;;;;;;14.08;24.48;93701.00;5108849;27;20044;-59
2022/03/06 06:54:04;;;;;;;218.40;171.75;;;;;;;14.04;24.39;93694.97;5074713;27;20055;-60
2022/03/06 06:56:31;;;;;;;214.43;171.45;;;;;;;14.08;24.52;93697.56;5095946;27;20805;-60
2022/03/06 06:58:58;;;;;;;221.88;174.88;;;;;;;14.05;24.30;93691.09;5076154;27;20051;-59
2022/03/06 07:01:25;;;;;;;229.32;181.98;;;;;;;14.07;24.55;93688.72;5090421;27;20389;-59
2022/03/06 07:03:52;;;;;;;225.13;178.07;;;;;;;14.07;24.51;93687.97;5071959;27;20591;-61
2022/03/06 07:06:18;;;;;;;223.40;175.63;;;;;;;14.08;24.42;93689.47;5089807;27;20044;-59
2022/03/06 07:08:45;;;;;;;225.90;177.20;;;;;;;14.07;24.47;93698.72;5090973;27;20055;-59
2022/03/06 07:11:12;;;;;;;225.57;177.93;;;;;;;14.05;24.52;93699.16;5091053;27;20122;-59
2022/03/06 07:13:38;;;;;;;218.85;173.88;;;;;;;14.07;24.60;93698.72;5091665;27;20050;-60
2022/03/06 07:16:05;;;;;;;224.57;179.43;;;;;;;14.06;24.38;93699.91;5089994;27;20069;-59
2022/03/06 07:18:32;;;;;;;218.38;172.68;;;;;;;14.09;24.54;93704.44;5091025;27;20058;-61
2022/03/06 07:21:02;;;;;;;219.57;174.82;;;;;;;14.02;24.62;93702.72;5071736;27;20119;-62
2022/03/06 07:23:30;;;;;;;218.85;173.73;;;;;;;14.02;24.73;93710.03;5083975;27;20415;-62
2022/03/06 07:25:56;;;;;;;222.15;176.18;;;;;;;13.97;24.83;93711.34;5093424;27;20046;-61
2022/03/06 07:28:24;;;;;;;221.52;175.10;;;;;;;13.94;24.79;93706.09;5089296;27;20999;-63
2022/03/06 07:30:51;;;;;;;210.00;163.07;;;;;;;13.96;24.90;93712.53;5090179;27;21356;-63
2022/03/06 07:33:18;;;;;;;219.00;172.43;;;;;;;13.93;24.64;93713.41;5073203;27;20043;-62
2022/03/06 07:35:45;;;;;;;224.05;177.80;;;;;;;13.91;24.83;93710.38;5091592;27;20532;-62
2022/03/06 07:38:12;;;;;;;220.52;175.07;;;;;;;13.84;24.77;93714.06;5090628;27;20479;-61
2022/03/06 07:40:38;;;;;;;214.90;169.82;;;;;;;13.91;24.75;93715.00;5070353;27;20130;-63
2022/03/06 07:43:04;;;;;;;225.82;178.23;;;;;;;13.91;24.87;93712.31;5090160;27;20050;-62
2022/03/06 07:45:31;;;;;;;228.15;180.68;;;;;;;13.94;24.93;93714.16;5071988;27;20039;-61
2022/03/06 07:47:58;;;;;;;225.55;176.75;;;;;;;13.93;24.87;93709.94;5080917;27;20055;-61
2022/03/06 07:50:26;;;;;;;237.40;183.60;;;;;;;13.88;25.21;93708.56;5092843;27;20043;-61
2022/03/06 07:52:52;;;;;;;225.48;176.68;;;;;;;13.78;25.08;93710.41;5073994;27;20586;-61
2022/03/06 07:55:19;;;;;;;225.88;178.05;;;;;;;13.75;25.00;93716.66;5085644;27;20400;-60
2022/03/06 07:57:46;;;;;;;226.55;176.73;;;;;;;13.82;25.17;93718.34;5089398;27;20553;-59
2022/03/06 08:00:13;;;;;;;236.65;183.15;;;;;;;13.85;25.02;93715.56;5089607;27;20051;-60
2022/03/06 08:02:40;;;;;;;226.20;178.95;;;;;;;13.88;25.31;93715.88;5088943;27;20058;-60
2022/03/06 08:05:08;;;;;;;222.77;176.20;;;;;;;13.91;24.97;93707.69;5093076;27;20047;-61
2022/03/06 08:07:35;;;;;;;222.75;172.18;;;;;;;13.80;25.35;93705.34;5092216;27;20043;-60
2022/03/06 08:10:04;;;;;;;225.65;177.20;;;;;;;13.77;25.11;93710.84;5070974;27;20065;-60
2022/03/06 08:12:30;;;;;;;206.85;164.48;;;;;;;13.84;25.10;93718.69;5089578;27;20069;-61
2022/03/06 08:14:57;;;;;;;216.07;170.50;;;;;;;13.89;25.28;93717.38;5090646;27;20039;-60
2022/03/06 08:17:26;;;;;;;232.50;181.73;;;;;;;13.94;25.30;93716.84;5086642;27;20078;-61
2022/03/06 08:19:53;;;;;;;225.60;179.40;;;;;;;13.83;25.42;93714.50;5074119;28;20051;-60
2022/03/06 08:22:23;;;;;;;227.68;179.18;;;;;;;13.76;25.22;93726.22;5089606;27;20053;-61
2022/03/06 08:24:50;;;;;;;217.90;172.70;;;;;;;13.60;25.65;93723.69;5090121;27;20069;-61
2022/03/06 08:27:16;;;;;;;232.70;178.13;;;;;;;13.51;25.79;93728.97;5089740;27;20186;-62
2022/03/06 08:29:46;;;;;;;204.55;162.63;;;;;;;13.66;25.69;93732.69;5072110;27;21762;-61
2022/03/06 08:32:12;;;;;;;229.13;178.07;;;;;;;13.71;25.47;93729.44;5071408;27;20055;-60
2022/03/06 08:34:39;;;;;;;225.63;175.60;;;;;;;13.74;25.42;93725.91;5089724;27;20116;-61
2022/03/06 08:37:06;;;;;;;225.57;173.98;;;;;;;13.77;25.52;93729.66;5088717;27;20086;-61
2022/03/06 08:39:32;;;;;;;223.57;176.63;;;;;;;13.74;25.30;93728.59;5073314;27;20062;-61
2022/03/06 08:41:59;;;;;;;221.98;174.40;;;;;;;13.71;25.66;93734.81;5092744;27;20047;-61
2022/03/06 08:44:26;;;;;;;223.40;174.32;;;;;;;13.71;25.37;93736.75;5089032;27;20134;-60
2022/03/06 08:46:53;;;;;;;233.75;182.77;;;;;;;13.55;25.69;93731.53;5090202;27;20407;-61
2022/03/06 08:49:19;;;;;;;238.93;187.25;;;;;;;13.56;25.75;93736.47;5085224;27;20127;-63
2022/03/06 08:51:47;;;;;;;226.98;177.48;;;;;;;13.54;25.69;93727.34;5089817;27;20113;-62
2022/03/06 08:54:15;;;;;;;228.80;177.80;;;;;;;13.46;25.96;93726.81;5087270;27;20564;-61
2022/03/06 08:56:43;;;;;;;206.77;161.27;;;;;;;13.50;25.82;93725.50;5071688;27;20074;-61
2022/03/06 08:59:09;;;;;;;231.13;179.88;;;;;;;13.52;25.80;93736.59;5089240;27;20062;-60
2022/03/06 09:01:35;;;;;;;217.85;170.57;;;;;;;13.48;25.79;93741.31;5088059;27;20039;-62
2022/03/06 09:04:03;;;;;;;216.65;170.48;;;;;;;13.44;25.73;93731.84;5090296;27;20044;-60
2022/03/06 09:06:29;;;;;;;228.60;182.30;;;;;;;13.51;25.97;93737.00;5074542;28;20040;-62
2022/03/06 09:08:55;;;;;;;226.55;178.20;;;;;;;13.50;25.86;93727.44;5073746;28;20074;-62
2022/03/06 09:11:20;;;;;;;206.43;161.27;;;;;;;13.59;25.74;93735.63;5071966;27;22144;-61
2022/03/06 09:13:46;;;;;;;210.68;166.68;;;;;;;13.51;25.66;93734.31;5071727;27;20136;-62
2022/03/06 09:16:12;;;;;;;231.98;179.88;;;;;;;13.49;25.55;93732.06;5089386;27;20046;-62
2022/03/06 09:18:38;;;;;;;220.68;173.55;;;;;;;13.59;25.48;93730.25;5093462;27;20138;-61
2022/03/06 09:21:03;;;;;;;224.55;174.65;;;;;;;13.62;25.54;93725.94;5076065;28;20043;-62
2022/03/06 09:23:29;;;;;;;227.50;176.43;;;;;;;13.64;25.73;93718.19;5071737;27;20502;-62
2022/03/06 09:25:55;;;;;;;223.05;173.30;;;;;;;13.64;25.67;93726.25;5092335;27;20062;-62
2022/03/06 09:28:21;;;;;;;227.50;177.82;;;;;;;13.67;25.72;93720.75;5088338;27;20044;-62
2022/03/06 09:30:47;;;;;;;208.05;162.80;;;;;;;13.63;25.66;93720.13;5089639;27;20040;-61
2022/03/06 09:33:12;;;;;;;215.32;169.05;;;;;;;13.63;25.61;93730.13;5091803;27;20414;-62
2022/03/06 09:35:38;;;;;;;223.00;175.10;;;;;;;13.63;25.66;93732.81;5092376;27;20094;-61
2022/03/06 09:38:04;;;;;;;223.32;175.27;;;;;;;13.63;25.66;93728.19;5071920;28;20513;-62
2022/03/06 09:40:30;;;;;;;242.75;186.55;;;;;;;13.57;25.72;93723.78;5070586;28;20051;-62
2022/03/06 09:42:55;;;;;;;211.80;165.38;;;;;;;13.61;25.63;93730.56;5089125;28;20865;-61
2022/03/06 09:45:23;;;;;;;224.63;174.90;;;;;;;13.47;25.88;93731.75;5089595;28;20043;-61
2022/03/06 09:47:49;;;;;;;230.05;180.57;;;;;;;13.41;25.97;93733.47;5089598;28;20051;-61
2022/03/06 09:50:16;;;;;;;224.13;173.15;;;;;;;13.44;26.29;93732.59;5071707;28;20431;-62
2022/03/06 09:52:42;;;;;;;223.15;174.07;;;;;;;13.52;25.88;93731.22;5088851;28;20373;-61
2022/03/06 09:55:09;;;;;;;236.98;184.32;;;;;;;13.41;26.12;93727.34;5081076;28;20047;-61
2022/03/06 09:57:35;;;;;;;221.00;173.40;;;;;;;13.42;26.08;93728.84;5090961;28;20055;-62
2022/03/06 10:00:02;;;;;;;222.63;175.30;;;;;;;13.42;25.75;93734.22;5087762;27;20052;-61
2022/03/06 10:02:28;;;;;;;221.88;174.95;;;;;;;13.51;25.77;93739.69;5089831;28;20131;-61
2022/03/06 10:04:53;;;;;;;227.80;177.23;;;;;;;13.47;25.94;93731.00;5090050;28;20039;-61
2022/03/06 10:07:19;;;;;;;215.50;168.50;;;;;;;13.48;25.88;93733.25;5072020;28;20145;-61
2022/03/06 10:09:49;;;;;;;209.80;161.95;;;;;;;13.57;26.08;93740.66;5092086;28;20047;-62
2022/03/06 10:12:27;;;;;;;229.60;178.30;;;;;;;13.71;25.57;93731.38;5089651;28;20042;-62
2022/03/06 10:14:55;;;;;;;222.02;171.88;;;;;;;13.68;25.58;93730.31;5089383;28;20187;-61
2022/03/06 10:17:26;;;;;;;225.57;176.02;;;;;;;13.60;25.92;93736.38;5087431;28;20046;-62
2022/03/06 10:19:59;;;;;;;214.45;168.95;;;;;;;13.49;25.83;93736.69;5088535;28;20044;-62
2022/03/06 10:22:26;;;;;;;225.98;177.75;;;;;;;13.52;25.67;93741.19;5087720;28;20043;-61
2022/03/06 10:24:56;;;;;;;219.70;171.02;;;;;;;13.57;25.96;93735.28;5088537;27;20071;-61
2022/03/06 10:27:56;;;;;;;228.35;179.50;;;;;;;13.61;25.62;93732.50;5075144;27;20042;-60
2022/03/06 10:30:25;;;;;;;238.75;185.57;;;;;;;13.63;25.88;93736.25;5090821;27;20143;-61
2022/03/06 10:32:51;;;;;;;229.27;178.20;;;;;;;13.61;25.79;93735.94;5091475;27;20334;-62
2022/03/06 10:35:16;;;;;;;215.50;168.75;;;;;;;13.62;25.69;93744.75;5091902;27;21020;-62
2022/03/06 10:37:42;;;;;;;227.75;178.55;;;;;;;13.68;25.55;93745.69;5092381;27;20043;-61
2022/03/06 10:40:14;;;;;;;228.15;178.40;;;;;;;13.59;25.78;93740.25;5090809;27;20062;-61
2022/03/06 10:42:42;;;;;;;220.95;171.85;;;;;;;13.58;25.96;93742.16;5094419;27;20039;-61
2022/03/06 10:45:23;;;;;;;209.02;164.75;;;;;;;13.64;25.69;93742.38;5090944;27;20074;-62
2022/03/06 10:47:49;;;;;;;222.18;174.27;;;;;;;13.45;25.87;93744.09;5093444;27;20036;-61
2022/03/06 10:50:21;;;;;;;230.07;177.82;;;;;;;13.39;26.21;93738.53;5076394;27;20039;-61
2022/03/06 10:52:47;;;;;;;222.18;173.85;;;;;;;13.35;26.03;93735.19;5096956;27;20039;-62
2022/03/06 10:55:13;;;;;;;223.75;173.55;;;;;;;13.35;26.23;93732.50;5094687;27;20051;-61
2022/03/06 10:57:40;;;;;;;201.00;157.55;;;;;;;13.33;26.07;93739.47;5084347;28;20044;-62
2022/03/06 11:00:06;;;;;;;196.25;153.10;;;;;;;13.45;26.21;93741.41;5114537;27;20043;-61